createdAt,value
2023-02-08T00:03:43.060Z,101244.94
2023-02-08T00:08:48.463Z,101242.09
2023-02-08T00:13:54.046Z,101247.00
2023-02-08T00:19:01.757Z,101237.84
2023-02-08T00:24:07.167Z,101237.78
2023-02-08T00:29:12.354Z,101241.22
2023-02-08T00:34:19.893Z,101236.91
2023-02-08T00:39:29.185Z,101249.50
2023-02-08T00:44:34.464Z,101235.47
2023-02-08T00:49:42.051Z,101236.81
2023-02-08T00:54:47.144Z,101227.38
2023-02-08T00:59:52.165Z,101237.00
2023-02-08T01:05:00.221Z,101227.00
2023-02-08T01:10:06.415Z,101222.66
2023-02-08T01:15:12.694Z,101220.47
2023-02-08T01:20:20.430Z,101208.44
2023-02-08T01:25:25.514Z,101225.97
2023-02-08T01:30:30.434Z,101213.00
2023-02-08T01:35:38.016Z,101215.63
2023-02-08T01:40:43.372Z,101224.19
2023-02-08T01:45:49.397Z,101214.56
2023-02-08T01:51:01.542Z,101216.31
2023-02-08T01:56:12.685Z,101205.94
2023-02-08T02:01:18.796Z,101206.75
2023-02-08T02:06:31.452Z,101202.94
2023-02-08T02:11:36.462Z,101206.19
2023-02-08T02:16:41.442Z,101195.97
2023-02-08T02:22:00.523Z,101191.19
2023-02-08T02:27:32.961Z,101201.47
2023-02-08T02:32:54.021Z,101214.31
2023-02-08T02:38:09.348Z,101203.22
2023-02-08T02:43:32.248Z,101199.69
2023-02-08T02:48:45.527Z,101202.44
2023-02-08T02:53:58.154Z,101195.31
2023-02-08T02:59:08.364Z,101196.53
2023-02-08T03:04:22.365Z,101187.53
2023-02-08T03:09:50.774Z,101189.44
2023-02-08T03:15:02.322Z,101194.09
2023-02-08T03:20:15.102Z,101199.53
2023-02-08T03:25:24.034Z,101199.81
2023-02-08T03:30:46.114Z,101203.63
2023-02-08T03:35:59.382Z,101207.34
2023-02-08T03:41:11.110Z,101216.84
2023-02-08T03:46:19.968Z,101222.19
2023-02-08T03:51:31.591Z,101225.59
2023-02-08T03:56:43.692Z,101232.56
2023-02-08T04:01:54.645Z,101228.88
2023-02-08T04:07:02.606Z,101231.91
2023-02-08T04:12:08.854Z,101224.66
2023-02-08T04:17:13.784Z,101234.91
2023-02-08T04:22:21.393Z,101237.50
2023-02-08T04:27:26.397Z,101229.72
2023-02-08T04:32:31.303Z,101229.84
2023-02-08T04:37:38.891Z,101227.94
2023-02-08T04:42:50.832Z,101229.31
2023-02-08T04:47:55.696Z,101213.47
2023-02-08T04:53:06.621Z,101211.16
2023-02-08T04:58:11.579Z,101211.44
2023-02-08T05:03:16.594Z,101211.28
2023-02-08T05:08:25.376Z,101218.94
2023-02-08T05:13:30.368Z,101207.88
2023-02-08T05:18:35.270Z,101213.47
2023-02-08T05:23:43.527Z,101213.75
2023-02-08T05:28:49.734Z,101224.81
2023-02-08T05:33:55.787Z,101214.13
2023-02-08T05:39:03.397Z,101228.34
2023-02-08T05:44:08.759Z,101219.88
2023-02-08T05:49:13.787Z,101225.50
2023-02-08T05:54:21.750Z,101226.16
2023-02-08T05:59:27.489Z,101217.81
2023-02-08T06:04:32.801Z,101219.47
2023-02-08T06:09:40.619Z,101225.88
2023-02-08T06:14:46.186Z,101229.28
2023-02-08T06:19:51.632Z,101239.00
2023-02-08T06:24:59.701Z,101238.44
2023-02-08T06:30:04.934Z,101248.81
2023-02-08T06:35:10.978Z,101251.69
2023-02-08T06:40:21.067Z,101251.72
2023-02-08T06:45:26.023Z,101250.22
2023-02-08T06:50:31.193Z,101260.44
2023-02-08T06:55:38.907Z,101266.16
2023-02-08T07:00:45.465Z,101266.84
2023-02-08T07:06:11.671Z,101268.91
2023-02-08T07:11:25.504Z,101265.34
2023-02-08T07:16:30.820Z,101282.81
2023-02-08T07:21:36.180Z,101269.41
2023-02-08T07:26:43.982Z,101274.59
2023-02-08T07:31:50.549Z,101271.00
2023-02-08T07:36:55.521Z,101274.38
2023-02-08T07:42:08.285Z,101274.75
2023-02-08T07:47:20.005Z,101284.50
2023-02-08T07:52:34.283Z,101277.63
2023-02-08T07:57:47.305Z,101269.72
2023-02-08T08:02:53.757Z,101271.91
2023-02-08T08:07:58.880Z,101279.16
2023-02-08T08:13:09.422Z,101287.81
2023-02-08T08:18:14.864Z,101285.00
2023-02-08T08:23:21.090Z,101284.34
2023-02-08T08:28:29.578Z,101283.22
2023-02-08T08:33:34.784Z,101280.72
2023-02-08T08:38:44.067Z,101288.34
2023-02-08T08:43:56.346Z,101291.69
2023-02-08T08:49:05.386Z,101285.56
2023-02-08T08:54:16.365Z,101301.31
2023-02-08T08:59:24.249Z,101295.94
2023-02-08T09:04:29.608Z,101295.00
2023-02-08T09:09:38.063Z,101294.59
2023-02-08T09:14:47.059Z,101292.03
2023-02-08T09:19:53.028Z,101295.66
2023-02-08T09:24:58.128Z,101299.03
2023-02-08T09:30:06.044Z,101302.06
2023-02-08T09:35:13.485Z,101307.50
2023-02-08T09:40:27.687Z,101315.56
2023-02-08T09:45:58.934Z,101308.47
2023-02-08T09:51:12.130Z,101308.72
2023-02-08T09:56:20.303Z,101311.34
2023-02-08T10:01:30.695Z,101310.34
2023-02-08T10:06:36.820Z,101309.84
2023-02-08T10:11:54.027Z,101310.41
2023-02-08T10:17:11.587Z,101297.16
2023-02-08T10:22:30.147Z,101301.59
2023-02-08T10:28:09.592Z,101294.78
2023-02-08T10:33:34.873Z,101301.94
2023-02-08T10:38:46.976Z,101290.53
2023-02-08T10:43:58.431Z,101284.28
2023-02-08T10:49:17.424Z,101276.97
2023-02-08T10:54:22.346Z,101273.41
2023-02-08T10:59:31.727Z,101253.97
2023-02-08T11:05:04.095Z,101242.81
2023-02-08T11:10:30.479Z,101231.97
2023-02-08T11:15:43.138Z,101233.94
2023-02-08T11:20:55.404Z,101232.31
2023-02-08T11:26:20.421Z,101235.91
2023-02-08T11:31:25.399Z,101216.97
2023-02-08T11:36:37.087Z,101233.19
2023-02-08T11:41:48.244Z,101230.59
2023-02-08T11:46:54.773Z,101223.63
2023-02-08T11:52:02.637Z,101222.69
2023-02-08T11:57:15.836Z,101224.13
2023-02-08T12:02:32.546Z,101211.53
2023-02-08T12:07:58.584Z,101220.44
2023-02-08T12:13:22.006Z,101228.47
2023-02-08T12:18:49.463Z,101216.22
2023-02-08T12:24:02.806Z,101196.03
2023-02-08T12:29:45.668Z,101201.25
2023-02-08T12:35:06.662Z,101189.97
2023-02-08T12:40:39.776Z,101190.88
2023-02-08T12:46:07.116Z,101191.91
2023-02-08T12:51:23.938Z,101193.28
2023-02-08T12:56:38.352Z,101180.97
2023-02-08T13:01:49.213Z,101182.34
2023-02-08T13:06:58.988Z,101182.53
2023-02-08T13:12:15.850Z,101172.13
2023-02-08T13:17:25.805Z,101166.06
2023-02-08T13:22:34.609Z,101134.09
2023-02-08T13:27:42.734Z,101142.25
2023-02-08T13:32:50.776Z,101131.16
2023-02-08T13:38:08.454Z,101131.94
2023-02-08T13:43:35.182Z,101132.88
2023-02-08T13:48:47.987Z,101130.44
2023-02-08T13:54:13.614Z,101130.03
2023-02-08T13:59:42.243Z,101127.34
2023-02-08T14:04:48.559Z,101125.34
2023-02-08T14:10:09.602Z,101128.72
2023-02-08T14:15:34.059Z,101134.44
2023-02-08T14:20:42.884Z,101121.97
2023-02-08T14:25:51.881Z,101130.19
2023-02-08T14:31:02.651Z,101121.38
2023-02-08T14:36:11.695Z,101118.06
2023-02-08T14:41:51.184Z,101128.47
2023-02-08T14:47:01.054Z,101127.97
2023-02-08T14:52:15.864Z,101121.78
2023-02-08T14:57:28.371Z,101124.72
2023-02-08T15:02:39.673Z,101125.56
2023-02-08T15:07:51.768Z,101123.56
2023-02-08T15:13:00.852Z,101119.00
2023-02-08T15:18:19.112Z,101112.66
2023-02-08T15:23:25.542Z,101111.56
2023-02-08T15:28:33.076Z,101104.69
2023-02-08T15:33:42.651Z,101104.25
2023-02-08T15:38:48.329Z,101095.41
2023-02-08T15:43:53.375Z,101088.25
2023-02-08T15:49:03.795Z,101088.69
2023-02-08T15:54:09.511Z,101083.91
2023-02-08T15:59:22.927Z,101075.78
2023-02-08T16:04:33.010Z,101089.63
2023-02-08T16:09:39.433Z,101074.41
2023-02-08T16:14:52.429Z,101072.75
2023-02-08T16:20:02.957Z,101071.00
2023-02-08T16:25:27.020Z,101076.84
2023-02-08T16:30:34.766Z,101069.75
2023-02-08T16:35:46.430Z,101066.38
2023-02-08T16:40:53.610Z,101074.47
2023-02-08T16:46:31.022Z,101063.72
2023-02-08T16:51:43.355Z,101062.66
2023-02-08T16:56:53.760Z,101060.25
2023-02-08T17:01:59.066Z,101060.72
2023-02-08T17:07:09.858Z,101042.78
2023-02-08T17:12:22.522Z,101053.31
2023-02-08T17:17:29.349Z,101055.84
2023-02-08T17:22:39.533Z,101055.06
2023-02-08T17:27:44.463Z,101055.75
2023-02-08T17:32:50.047Z,101049.34
2023-02-08T17:37:59.402Z,101053.97
2023-02-08T17:43:05.343Z,101039.81
2023-02-08T17:48:13.358Z,101030.03
2023-02-08T17:53:21.424Z,101029.72
2023-02-08T17:58:28.638Z,101025.78
2023-02-08T18:03:36.362Z,101033.63
2023-02-08T18:08:44.231Z,101025.31
2023-02-08T18:13:54.962Z,101009.19
2023-02-08T18:19:01.948Z,101007.41
2023-02-08T18:24:10.126Z,101013.28
2023-02-08T18:29:17.263Z,101020.78
2023-02-08T18:34:23.299Z,101006.56
2023-02-08T18:39:33.222Z,101017.50
2023-02-08T18:44:39.526Z,101031.06
2023-02-08T18:49:44.899Z,101040.19
2023-02-08T18:54:53.665Z,101030.28
2023-02-08T19:00:01.250Z,101021.03
2023-02-08T19:05:06.499Z,100992.44
2023-02-08T19:10:15.239Z,100997.16
2023-02-08T19:15:20.292Z,100980.69
2023-02-08T19:20:25.808Z,100977.16
2023-02-08T19:25:34.849Z,100960.72
2023-02-08T19:30:40.095Z,100936.78
2023-02-08T19:35:45.587Z,100942.31
2023-02-08T19:40:58.069Z,100931.38
2023-02-08T19:46:04.186Z,100935.63
2023-02-08T19:51:12.524Z,100929.41
2023-02-08T19:56:22.307Z,100912.91
2023-02-08T20:01:30.539Z,100926.19
2023-02-08T20:06:48.062Z,100924.22
2023-02-08T20:11:59.799Z,100916.03
2023-02-08T20:17:05.870Z,100900.09
2023-02-08T20:22:12.692Z,100893.88
2023-02-08T20:27:23.004Z,100874.47
2023-02-08T20:32:30.015Z,100873.25
2023-02-08T20:37:36.030Z,100879.13
2023-02-08T20:42:44.820Z,100881.38
2023-02-08T20:47:49.837Z,100874.19
2023-02-08T20:52:55.729Z,100862.41
2023-02-08T20:58:03.601Z,100860.78
2023-02-08T21:03:11.548Z,100851.22
2023-02-08T21:08:16.595Z,100852.44
2023-02-08T21:13:26.335Z,100837.41
2023-02-08T21:18:31.381Z,100829.75
2023-02-08T21:23:37.406Z,100818.34
2023-02-08T21:28:45.301Z,100817.13
2023-02-08T21:33:51.193Z,100804.88
2023-02-08T21:38:56.577Z,100797.31
2023-02-08T21:44:08.258Z,100791.44
2023-02-08T21:49:26.288Z,100789.13
2023-02-08T21:54:49.354Z,100768.88
2023-02-08T21:59:59.760Z,100765.75
2023-02-08T22:05:06.000Z,100755.47
2023-02-08T22:10:13.560Z,100748.28
2023-02-08T22:15:22.871Z,100762.50
2023-02-08T22:20:30.147Z,100767.94
2023-02-08T22:25:36.117Z,100758.81
2023-02-08T22:30:44.808Z,100754.88
2023-02-08T22:35:50.196Z,100740.56
2023-02-08T22:40:55.764Z,100744.81
2023-02-08T22:46:06.558Z,100744.22
2023-02-08T22:51:13.479Z,100734.41
2023-02-08T22:56:22.444Z,100735.53
2023-02-08T23:01:30.381Z,100713.88
2023-02-08T23:06:35.879Z,100710.91
2023-02-08T23:11:41.132Z,100699.81
2023-02-08T23:16:48.669Z,100701.81
2023-02-08T23:21:53.798Z,100701.09
2023-02-08T23:26:58.917Z,100700.97
2023-02-08T23:32:06.637Z,100695.75
2023-02-08T23:37:11.623Z,100686.66
2023-02-08T23:42:25.651Z,100687.19
2023-02-08T23:47:33.546Z,100689.09
2023-02-08T23:52:39.777Z,100681.25
2023-02-08T23:57:44.925Z,100684.53
